createdAt,value
2017-03-12T00:00:34.957Z,0
2017-03-12T00:01:45.180Z,0
2017-03-12T00:02:55.419Z,0
2017-03-12T00:04:05.271Z,0
2017-03-12T00:05:13.951Z,0
2017-03-12T00:06:23.426Z,0
2017-03-12T00:07:33.286Z,0
2017-03-12T00:08:43.142Z,0
2017-03-12T00:09:53.066Z,0
2017-03-12T00:11:02.899Z,0
2017-03-12T00:12:13.468Z,0
2017-03-12T00:13:23.333Z,0
2017-03-12T00:14:33.571Z,0
2017-03-12T00:15:43.846Z,0
2017-03-12T00:16:53.729Z,0
2017-03-12T00:18:04.355Z,0
2017-03-12T00:19:14.293Z,0
2017-03-12T00:20:24.197Z,0
2017-03-12T00:21:34.064Z,0
2017-03-12T00:22:43.921Z,0
2017-03-12T00:23:53.643Z,0
2017-03-12T00:25:03.567Z,0
2017-03-12T00:26:13.084Z,0
2017-03-12T00:27:22.649Z,0
2017-03-12T00:28:32.108Z,0
2017-03-12T00:29:41.975Z,0
2017-03-12T00:30:52.197Z,0
2017-03-12T00:32:01.649Z,0
2017-03-12T00:33:10.358Z,0
2017-03-12T00:34:20.338Z,0
2017-03-12T00:35:30.514Z,0
2017-03-12T00:36:41.301Z,0
2017-03-12T00:37:50.773Z,0
2017-03-12T00:39:01.001Z,0
2017-03-12T00:40:10.070Z,0
2017-03-12T00:41:19.562Z,0
2017-03-12T00:42:29.440Z,0
2017-03-12T00:43:39.276Z,0
2017-03-12T00:44:49.498Z,0
2017-03-12T00:45:59.613Z,0
2017-03-12T00:47:10.243Z,0
2017-03-12T00:48:19.705Z,0
2017-03-12T00:49:28.783Z,0
2017-03-12T00:50:38.641Z,0
2017-03-12T00:51:49.262Z,0
2017-03-12T00:52:59.126Z,0
2017-03-12T00:54:08.974Z,0
2017-03-12T00:55:19.228Z,0
2017-03-12T00:56:28.700Z,0
2017-03-12T00:57:38.933Z,0
2017-03-12T00:58:49.160Z,0
2017-03-12T00:59:59.379Z,0
2017-03-12T01:01:09.593Z,0
2017-03-12T01:02:19.837Z,0
2017-03-12T01:03:29.698Z,0
2017-03-12T01:04:39.927Z,0
2017-03-12T01:05:49.790Z,0
2017-03-12T01:06:59.253Z,0
2017-03-12T01:08:09.861Z,0
2017-03-12T01:09:20.073Z,0
2017-03-12T01:10:30.305Z,0
2017-03-12T01:11:40.171Z,0
2017-03-12T01:12:50.027Z,0
2017-03-12T01:13:59.869Z,0
2017-03-12T01:15:09.707Z,0
2017-03-12T01:16:19.168Z,0
2017-03-12T01:17:29.012Z,0
2017-03-12T01:18:38.880Z,0
2017-03-12T01:19:49.504Z,0
2017-03-12T01:20:59.737Z,0
2017-03-12T01:22:09.592Z,0
2017-03-12T01:23:19.806Z,0
2017-03-12T01:24:29.651Z,0
2017-03-12T01:25:39.134Z,0
2017-03-12T01:26:48.474Z,0
2017-03-12T01:27:58.337Z,0
2017-03-12T01:29:08.173Z,0
2017-03-12T01:30:17.282Z,0
2017-03-12T01:31:27.146Z,0
2017-03-12T01:32:37.361Z,0
2017-03-12T01:33:47.605Z,0
2017-03-12T01:34:58.230Z,0
2017-03-12T01:36:08.840Z,0
2017-03-12T01:37:18.691Z,0
2017-03-12T01:38:28.828Z,0
2017-03-12T01:39:37.913Z,0
2017-03-12T01:40:48.183Z,0
2017-03-12T01:41:58.027Z,0
2017-03-12T01:43:07.475Z,0
2017-03-12T01:44:16.959Z,0
2017-03-12T01:45:26.037Z,0
2017-03-12T01:46:36.261Z,0
2017-03-12T01:47:46.511Z,0
2017-03-12T01:48:57.126Z,0
2017-03-12T01:50:06.594Z,0
2017-03-12T01:51:16.428Z,0
2017-03-12T01:52:26.643Z,0
2017-03-12T01:53:36.532Z,0
2017-03-12T01:54:47.129Z,0
2017-03-12T01:55:57.677Z,0
2017-03-12T01:57:07.159Z,0
2017-03-12T01:58:17.392Z,0
2017-03-12T01:59:27.229Z,0
2017-03-12T02:00:37.072Z,0
2017-03-12T02:01:46.538Z,0
2017-03-12T02:02:56.403Z,0
2017-03-12T02:04:06.263Z,0
2017-03-12T02:05:15.739Z,0
2017-03-12T02:06:25.589Z,0
2017-03-12T02:07:36.227Z,0
2017-03-12T02:08:46.087Z,0
2017-03-12T02:09:56.704Z,0
2017-03-12T02:11:06.540Z,0
2017-03-12T02:12:16.786Z,0
2017-03-12T02:13:27.297Z,0
2017-03-12T02:14:36.779Z,0
2017-03-12T02:15:47.072Z,0
2017-03-12T02:16:57.301Z,0
2017-03-12T02:18:07.564Z,0
2017-03-12T02:19:17.551Z,0
2017-03-12T02:20:27.413Z,0
2017-03-12T02:21:37.310Z,0
2017-03-12T02:22:47.231Z,0
2017-03-12T02:23:57.108Z,0
2017-03-12T02:25:07.247Z,0
2017-03-12T02:26:17.530Z,0
2017-03-12T02:27:27.269Z,0
2017-03-12T02:28:37.497Z,0
2017-03-12T02:29:47.730Z,0
2017-03-12T02:30:57.591Z,0
2017-03-12T02:32:07.469Z,0
2017-03-12T02:33:16.600Z,0
2017-03-12T02:34:25.777Z,0
2017-03-12T02:35:35.704Z,0
2017-03-12T02:36:46.310Z,0
2017-03-12T02:37:56.612Z,0
2017-03-12T02:39:06.842Z,0
2017-03-12T02:40:16.412Z,0
2017-03-12T02:41:26.265Z,0
2017-03-12T02:42:36.412Z,0
2017-03-12T02:43:46.309Z,0
2017-03-12T02:44:56.552Z,0
2017-03-12T02:46:06.817Z,0
2017-03-12T02:47:17.052Z,0
2017-03-12T02:48:27.665Z,0
2017-03-12T02:49:37.519Z,0
2017-03-12T02:50:47.004Z,0
2017-03-12T02:51:57.226Z,0
2017-03-12T02:53:06.710Z,0
2017-03-12T02:54:16.428Z,0
2017-03-12T02:55:26.277Z,0
2017-03-12T02:56:35.750Z,0
2017-03-12T02:57:45.989Z,0
2017-03-12T02:58:55.874Z,0
2017-03-12T03:00:05.777Z,0
2017-03-12T03:01:15.682Z,0
2017-03-12T03:02:25.955Z,0
2017-03-12T03:03:35.067Z,0
2017-03-12T03:04:44.609Z,0
2017-03-12T03:05:53.855Z,0
2017-03-12T03:07:03.419Z,0
2017-03-12T03:08:13.290Z,0
2017-03-12T03:09:22.383Z,0
2017-03-12T03:10:32.997Z,0
2017-03-12T03:11:43.093Z,0
2017-03-12T03:12:52.554Z,0
2017-03-12T03:14:02.805Z,0
2017-03-12T03:15:13.420Z,0
2017-03-12T03:16:22.509Z,0
2017-03-12T03:17:32.357Z,0
2017-03-12T03:18:42.192Z,0
2017-03-12T03:19:52.418Z,0
2017-03-12T03:21:02.646Z,0
2017-03-12T03:22:12.519Z,0
2017-03-12T03:23:22.360Z,0
2017-03-12T03:24:31.584Z,0
2017-03-12T03:25:40.866Z,0
2017-03-12T03:26:50.433Z,0
2017-03-12T03:28:00.058Z,0
2017-03-12T03:29:08.908Z,0
2017-03-12T03:30:18.089Z,0
2017-03-12T03:31:26.967Z,0
2017-03-12T03:32:36.627Z,0
2017-03-12T03:33:45.900Z,0
2017-03-12T03:34:55.550Z,0
2017-03-12T03:36:05.126Z,0
2017-03-12T03:37:14.012Z,0
2017-03-12T03:38:23.114Z,0
2017-03-12T03:39:33.380Z,0
2017-03-12T03:40:43.082Z,0
2017-03-12T03:41:52.928Z,0
2017-03-12T03:43:03.168Z,0
2017-03-12T03:44:12.242Z,0
2017-03-12T03:45:21.310Z,0
2017-03-12T03:46:31.919Z,0
2017-03-12T03:47:42.160Z,0
2017-03-12T03:48:51.615Z,0
2017-03-12T03:50:01.077Z,0
2017-03-12T03:51:10.179Z,0
2017-03-12T03:52:21.034Z,0
2017-03-12T03:53:30.491Z,0
2017-03-12T03:54:39.961Z,0
2017-03-12T03:55:49.062Z,0
2017-03-12T03:56:58.910Z,0
2017-03-12T03:58:08.785Z,0
2017-03-12T03:59:19.008Z,0
2017-03-12T04:00:29.627Z,0
2017-03-12T04:01:39.109Z,0
2017-03-12T04:02:48.943Z,0
2017-03-12T04:03:59.171Z,0
2017-03-12T04:05:09.010Z,0
2017-03-12T04:06:18.846Z,0
2017-03-12T04:07:29.451Z,0
2017-03-12T04:08:38.519Z,0
2017-03-12T04:09:48.948Z,0
2017-03-12T04:10:59.550Z,0
2017-03-12T04:12:09.411Z,0
2017-03-12T04:13:19.255Z,0
2017-03-12T04:14:29.509Z,0
2017-03-12T04:15:39.725Z,0
2017-03-12T04:16:50.327Z,0
2017-03-12T04:18:00.191Z,0
2017-03-12T04:19:10.043Z,0
2017-03-12T04:20:19.511Z,0
2017-03-12T04:21:29.399Z,0
2017-03-12T04:22:39.629Z,0
2017-03-12T04:23:49.465Z,0
2017-03-12T04:24:58.971Z,0
2017-03-12T04:26:08.041Z,0
2017-03-12T04:27:18.164Z,0
2017-03-12T04:28:28.029Z,0
2017-03-12T04:29:37.491Z,0
2017-03-12T04:30:47.729Z,0
2017-03-12T04:31:57.950Z,0
2017-03-12T04:33:07.780Z,0
2017-03-12T04:34:17.637Z,0
2017-03-12T04:35:27.864Z,0
2017-03-12T04:36:37.354Z,0
2017-03-12T04:37:46.835Z,0
2017-03-12T04:38:56.162Z,0
2017-03-12T04:40:05.249Z,0
2017-03-12T04:41:14.766Z,0
2017-03-12T04:42:25.033Z,0
2017-03-12T04:43:34.534Z,0
2017-03-12T04:44:43.988Z,0
2017-03-12T04:45:54.253Z,0
2017-03-12T04:47:04.112Z,0
2017-03-12T04:48:13.976Z,0
2017-03-12T04:49:22.680Z,0
2017-03-12T04:50:32.909Z,0
2017-03-12T04:51:42.780Z,0
2017-03-12T04:52:52.683Z,0
2017-03-12T04:54:03.000Z,0
2017-03-12T04:55:12.876Z,0
2017-03-12T04:56:23.067Z,0
2017-03-12T04:57:33.344Z,0
2017-03-12T04:58:43.313Z,0
2017-03-12T04:59:53.277Z,0
2017-03-12T05:01:03.226Z,0
2017-03-12T05:02:13.467Z,0
2017-03-12T05:03:23.705Z,0
2017-03-12T05:04:33.596Z,0
2017-03-12T05:05:44.233Z,0
2017-03-12T05:06:54.497Z,0
2017-03-12T05:08:04.733Z,0
2017-03-12T05:09:14.606Z,0
2017-03-12T05:10:24.873Z,0
2017-03-12T05:11:34.425Z,0
2017-03-12T05:12:44.265Z,0
2017-03-12T05:13:54.782Z,0
2017-03-12T05:15:04.720Z,0
2017-03-12T05:16:14.980Z,0
2017-03-12T05:17:24.818Z,0
2017-03-12T05:18:34.685Z,0
2017-03-12T05:19:44.943Z,0
2017-03-12T05:20:54.803Z,0
2017-03-12T05:22:04.702Z,4
2017-03-12T05:23:13.788Z,4
2017-03-12T05:24:24.117Z,0
2017-03-12T05:25:35.004Z,4
2017-03-12T05:26:44.881Z,4
2017-03-12T05:27:54.336Z,4
2017-03-12T05:29:04.576Z,8
2017-03-12T05:30:14.067Z,8
2017-03-12T05:31:23.523Z,8
2017-03-12T05:32:33.393Z,12
2017-03-12T05:33:43.272Z,12
2017-03-12T05:34:53.508Z,16
2017-03-12T05:36:03.748Z,24
2017-03-12T05:37:13.199Z,24
2017-03-12T05:38:23.802Z,32
2017-03-12T05:39:34.404Z,40
2017-03-12T05:40:44.259Z,48
2017-03-12T05:41:54.485Z,56
2017-03-12T05:43:04.210Z,68
2017-03-12T05:44:13.316Z,80
2017-03-12T05:45:22.892Z,96
2017-03-12T05:46:32.792Z,112
2017-03-12T05:47:42.343Z,128
2017-03-12T05:48:52.569Z,144
2017-03-12T05:50:02.457Z,168
2017-03-12T05:51:12.348Z,192
2017-03-12T05:52:21.452Z,216
2017-03-12T05:53:30.540Z,244
2017-03-12T05:54:40.439Z,276
2017-03-12T05:55:50.665Z,304
2017-03-12T05:57:00.522Z,340
2017-03-12T05:58:10.017Z,380
2017-03-12T05:59:20.282Z,420
2017-03-12T06:00:30.416Z,464
2017-03-12T06:01:40.669Z,512
2017-03-12T06:02:51.314Z,552
2017-03-12T06:04:00.412Z,596
2017-03-12T06:05:09.185Z,632
2017-03-12T06:06:19.027Z,676
2017-03-12T06:07:28.875Z,724
2017-03-12T06:08:39.498Z,776
2017-03-12T06:09:49.411Z,832
2017-03-12T06:10:58.506Z,896
2017-03-12T06:12:09.390Z,960
2017-03-12T06:13:19.246Z,1028
2017-03-12T06:14:29.115Z,1092
2017-03-12T06:15:39.724Z,1156
2017-03-12T06:16:50.361Z,1228
2017-03-12T06:18:00.197Z,1296
2017-03-12T06:19:10.083Z,1364
2017-03-12T06:20:20.326Z,1440
2017-03-12T06:21:30.175Z,1516
2017-03-12T06:22:39.633Z,1592
2017-03-12T06:23:49.728Z,1676
2017-03-12T06:24:59.727Z,1760
2017-03-12T06:26:09.196Z,1840
2017-03-12T06:27:18.736Z,1928
2017-03-12T06:28:29.112Z,2024
2017-03-12T06:29:38.977Z,2116
2017-03-12T06:30:49.218Z,2208
2017-03-12T06:31:59.826Z,2300
2017-03-12T06:33:09.695Z,2388
2017-03-12T06:34:19.554Z,2472
2017-03-12T06:35:28.669Z,2552
2017-03-12T06:36:38.918Z,2640
2017-03-12T06:37:49.141Z,2728
2017-03-12T06:38:59.000Z,2820
2017-03-12T06:40:08.831Z,2912
2017-03-12T06:41:18.287Z,3004
2017-03-12T06:42:28.520Z,3100
2017-03-12T06:43:38.360Z,3204
2017-03-12T06:44:48.207Z,3312
2017-03-12T06:45:58.063Z,3432
2017-03-12T06:47:08.539Z,3548
2017-03-12T06:48:18.769Z,3672
2017-03-12T06:49:28.632Z,3800
2017-03-12T06:50:38.101Z,3932
2017-03-12T06:51:48.320Z,4068
2017-03-12T06:52:58.570Z,4204
2017-03-12T06:54:08.044Z,4336
2017-03-12T06:55:17.907Z,4464
2017-03-12T06:56:27.383Z,4588
2017-03-12T06:57:37.225Z,4720
2017-03-12T06:58:47.327Z,4852
2017-03-12T06:59:57.563Z,4980
2017-03-12T07:01:07.036Z,5100
2017-03-12T07:02:17.252Z,5236
2017-03-12T07:03:27.485Z,5356
2017-03-12T07:04:36.961Z,5472
2017-03-12T07:05:47.200Z,5584
2017-03-12T07:06:57.065Z,5684
2017-03-12T07:08:07.297Z,5780
2017-03-12T07:09:17.910Z,5872
2017-03-12T07:10:27.247Z,5948
2017-03-12T07:11:36.705Z,6008
2017-03-12T07:12:47.303Z,6064
2017-03-12T07:13:57.901Z,6120
2017-03-12T07:15:07.373Z,6164
2017-03-12T07:16:17.232Z,6204
2017-03-12T07:17:27.464Z,6232
2017-03-12T07:18:36.929Z,6240
2017-03-12T07:19:47.154Z,6244
2017-03-12T07:20:57.372Z,6232
2017-03-12T07:22:07.493Z,6224
2017-03-12T07:23:17.716Z,6208
2017-03-12T07:24:27.554Z,6192
2017-03-12T07:25:38.162Z,6176
2017-03-12T07:26:48.023Z,6156
2017-03-12T07:27:58.298Z,6140
2017-03-12T07:29:08.142Z,6156
2017-03-12T07:30:17.602Z,6192
2017-03-12T07:31:27.908Z,6244
2017-03-12T07:32:38.186Z,6280
2017-03-12T07:33:48.115Z,6328
2017-03-12T07:34:57.986Z,6372
2017-03-12T07:36:07.865Z,6420
2017-03-12T07:37:17.395Z,6456
2017-03-12T07:38:27.708Z,6492
2017-03-12T07:39:37.605Z,6520
2017-03-12T07:40:48.258Z,6548
2017-03-12T07:41:58.488Z,6588
2017-03-12T07:43:08.808Z,6492
2017-03-12T07:44:19.479Z,6652
2017-03-12T07:45:29.255Z,6692
2017-03-12T07:46:39.557Z,6724
2017-03-12T07:47:49.825Z,6756
2017-03-12T07:49:00.049Z,6788
2017-03-12T07:50:09.950Z,6816
2017-03-12T07:51:19.417Z,6844
2017-03-12T07:52:29.697Z,6872
2017-03-12T07:53:39.918Z,6896
2017-03-12T07:54:49.470Z,6940
2017-03-12T07:55:59.336Z,6992
2017-03-12T07:57:09.566Z,7032
2017-03-12T07:58:19.067Z,7060
2017-03-12T07:59:28.161Z,7080
2017-03-12T08:00:38.467Z,7168
2017-03-12T08:01:48.689Z,7240
2017-03-12T08:02:59.297Z,7300
2017-03-12T08:04:09.159Z,7352
2017-03-12T08:05:18.643Z,7384
2017-03-12T08:06:28.486Z,7424
2017-03-12T08:07:38.340Z,7476
2017-03-12T08:08:48.197Z,7540
2017-03-12T08:09:57.303Z,7584
2017-03-12T08:11:06.788Z,7632
2017-03-12T08:12:17.041Z,7684
2017-03-12T08:13:26.894Z,7740
2017-03-12T08:14:37.135Z,7792
2017-03-12T08:15:47.755Z,7844
2017-03-12T08:16:57.598Z,7908
2017-03-12T08:18:07.432Z,7984
2017-03-12T08:19:16.502Z,8040
2017-03-12T08:20:25.833Z,8068
2017-03-12T08:21:36.048Z,8136
2017-03-12T08:22:46.279Z,8224
2017-03-12T08:23:56.515Z,8304
2017-03-12T08:25:06.359Z,8364
2017-03-12T08:26:15.447Z,8436
2017-03-12T08:27:25.303Z,8484
2017-03-12T08:28:35.160Z,8560
2017-03-12T08:29:44.229Z,8664
2017-03-12T08:30:54.103Z,8772
2017-03-12T08:32:04.193Z,8944
2017-03-12T08:33:14.463Z,9152
2017-03-12T08:34:23.942Z,9392
2017-03-12T08:35:33.424Z,9748
2017-03-12T08:36:43.277Z,9940
2017-03-12T08:37:52.736Z,10504
2017-03-12T08:39:02.977Z,11416
2017-03-12T08:40:12.828Z,11936
2017-03-12T08:41:22.280Z,12416
2017-03-12T08:42:32.539Z,13356
2017-03-12T08:43:42.249Z,12820
2017-03-12T08:44:52.117Z,12188
2017-03-12T08:46:02.356Z,12244
2017-03-12T08:47:12.211Z,12492
2017-03-12T08:48:22.071Z,12880
2017-03-12T08:49:32.318Z,13884
2017-03-12T08:50:42.920Z,15444
2017-03-12T08:51:52.766Z,16104
2017-03-12T08:53:02.244Z,16512
2017-03-12T08:54:12.099Z,16912
2017-03-12T08:55:21.437Z,17396
2017-03-12T08:56:30.576Z,17856
2017-03-12T08:57:40.428Z,18496
2017-03-12T08:58:50.662Z,18688
2017-03-12T09:00:00.508Z,19424
2017-03-12T09:01:09.215Z,19328
2017-03-12T09:02:19.844Z,18848
2017-03-12T09:03:28.938Z,18496
2017-03-12T09:04:39.163Z,18752
2017-03-12T09:05:49.053Z,19232
2017-03-12T09:06:59.208Z,18560
2017-03-12T09:08:09.444Z,19776
2017-03-12T09:09:18.593Z,20256
2017-03-12T09:10:28.067Z,20672
2017-03-12T09:11:37.582Z,20416
2017-03-12T09:12:47.810Z,18976
2017-03-12T09:13:57.288Z,18112
2017-03-12T09:15:07.527Z,17824
2017-03-12T09:16:17.008Z,17360
2017-03-12T09:17:26.159Z,17284
2017-03-12T09:18:36.642Z,17216
2017-03-12T09:19:46.223Z,17180
2017-03-12T09:20:55.755Z,17340
2017-03-12T09:22:05.209Z,17336
2017-03-12T09:23:15.148Z,17888
2017-03-12T09:24:24.319Z,17888
2017-03-12T09:25:33.802Z,17952
2017-03-12T09:26:43.672Z,18304
2017-03-12T09:27:52.807Z,17888
2017-03-12T09:29:03.092Z,18016
2017-03-12T09:30:12.601Z,17400
2017-03-12T09:31:22.553Z,18624
2017-03-12T09:32:32.561Z,19776
2017-03-12T09:33:43.189Z,19808
2017-03-12T09:34:53.102Z,20448
2017-03-12T09:36:03.329Z,22304
2017-03-12T09:37:13.590Z,23808
2017-03-12T09:38:23.080Z,24448
2017-03-12T09:39:32.544Z,24704
2017-03-12T09:40:41.648Z,23392
2017-03-12T09:41:50.612Z,26336
2017-03-12T09:43:00.102Z,27808
2017-03-12T09:44:09.597Z,25312
2017-03-12T09:45:18.695Z,27328
2017-03-12T09:46:28.179Z,26816
2017-03-12T09:47:38.532Z,26880
2017-03-12T09:48:48.776Z,27424
2017-03-12T09:49:58.655Z,26976
2017-03-12T09:51:08.128Z,23072
2017-03-12T09:52:17.228Z,24320
2017-03-12T09:53:27.714Z,25856
2017-03-12T09:54:37.572Z,24160
2017-03-12T09:55:47.059Z,24992
2017-03-12T09:56:57.305Z,27264
2017-03-12T09:58:07.169Z,25536
2017-03-12T09:59:17.407Z,23968
2017-03-12T10:00:27.643Z,23424
2017-03-12T10:01:37.529Z,25088
2017-03-12T10:02:47.000Z,21952
2017-03-12T10:03:56.880Z,21056
2017-03-12T10:05:06.981Z,21312
2017-03-12T10:06:17.227Z,23520
2017-03-12T10:07:26.696Z,28384
2017-03-12T10:08:36.545Z,26880
2017-03-12T10:09:46.037Z,21152
2017-03-12T10:10:55.892Z,20928
2017-03-12T10:12:04.971Z,20512
2017-03-12T10:13:14.466Z,21856
2017-03-12T10:14:24.702Z,20928
2017-03-12T10:15:34.617Z,21728
2017-03-12T10:16:45.211Z,21440
2017-03-12T10:17:54.691Z,22432
2017-03-12T10:19:04.566Z,21696
2017-03-12T10:20:14.072Z,22784
2017-03-12T10:21:24.238Z,22976
2017-03-12T10:22:33.561Z,23008
2017-03-12T10:23:43.159Z,21760
2017-03-12T10:24:53.494Z,22144
2017-03-12T10:26:03.348Z,22016
2017-03-12T10:27:13.202Z,21408
2017-03-12T10:28:22.779Z,21312
2017-03-12T10:29:33.011Z,21376
2017-03-12T10:30:42.102Z,21536
2017-03-12T10:31:51.579Z,21664
2017-03-12T10:33:01.851Z,21792
2017-03-12T10:34:11.201Z,22112
2017-03-12T10:35:20.663Z,22560
2017-03-12T10:36:30.164Z,23200
2017-03-12T10:37:39.635Z,24032
2017-03-12T10:38:49.905Z,23808
2017-03-12T10:39:59.082Z,24096
2017-03-12T10:41:08.185Z,24512
2017-03-12T10:42:17.284Z,24192
2017-03-12T10:43:26.777Z,24672
2017-03-12T10:44:35.876Z,24896
2017-03-12T10:45:45.348Z,23872
2017-03-12T10:46:54.828Z,23104
2017-03-12T10:48:05.090Z,22848
2017-03-12T10:49:15.347Z,22720
2017-03-12T10:50:25.208Z,22624
2017-03-12T10:51:35.453Z,22688
2017-03-12T10:52:44.567Z,23872
2017-03-12T10:53:54.063Z,23168
2017-03-12T10:55:03.914Z,22976
2017-03-12T10:56:14.148Z,23744
2017-03-12T10:57:23.632Z,23520
2017-03-12T10:58:33.122Z,22944
2017-03-12T10:59:43.778Z,22784
2017-03-12T11:00:53.678Z,22080
2017-03-12T11:02:03.577Z,21888
2017-03-12T11:03:13.476Z,22304
2017-03-12T11:04:22.974Z,23072
2017-03-12T11:05:32.874Z,23168
2017-03-12T11:06:42.365Z,20800
2017-03-12T11:07:52.208Z,21664
2017-03-12T11:09:01.322Z,24192
2017-03-12T11:10:11.629Z,25568
2017-03-12T11:11:21.945Z,26208
2017-03-12T11:12:31.830Z,26880
2017-03-12T11:13:41.357Z,27584
2017-03-12T11:14:51.660Z,27360
2017-03-12T11:16:01.132Z,27776
2017-03-12T11:17:11.001Z,28160
2017-03-12T11:18:20.897Z,28128
2017-03-12T11:19:31.143Z,27488
2017-03-12T11:20:42.468Z,22432
2017-03-12T11:21:51.646Z,23744
2017-03-12T11:23:01.495Z,27680
2017-03-12T11:24:10.619Z,33728
2017-03-12T11:25:20.864Z,28928
2017-03-12T11:26:30.349Z,21952
2017-03-12T11:27:40.249Z,21376
2017-03-12T11:28:49.445Z,20704
2017-03-12T11:29:59.332Z,21248
2017-03-12T11:31:08.806Z,20160
2017-03-12T11:32:18.154Z,22624
2017-03-12T11:33:28.017Z,19744
2017-03-12T11:34:37.518Z,19712
2017-03-12T11:35:46.229Z,20224
2017-03-12T11:36:56.143Z,20384
2017-03-12T11:38:06.124Z,20160
2017-03-12T11:39:15.641Z,20320
2017-03-12T11:40:25.507Z,20224
2017-03-12T11:41:34.980Z,20640
2017-03-12T11:42:44.980Z,20448
2017-03-12T11:43:55.233Z,20448
2017-03-12T11:45:04.696Z,20704
2017-03-12T11:46:14.218Z,21280
2017-03-12T11:47:23.640Z,21792
2017-03-12T11:48:32.891Z,22016
2017-03-12T11:49:42.175Z,22208
2017-03-12T11:50:51.702Z,22304
2017-03-12T11:52:01.944Z,22560
2017-03-12T11:53:11.446Z,22848
2017-03-12T11:54:21.358Z,22976
2017-03-12T11:55:30.838Z,22816
2017-03-12T11:56:40.726Z,22848
2017-03-12T11:57:49.801Z,22752
2017-03-12T11:58:58.906Z,22560
2017-03-12T12:00:07.988Z,22208
2017-03-12T12:01:17.717Z,21760
2017-03-12T12:02:27.595Z,21408
2017-03-12T12:03:36.675Z,21120
2017-03-12T12:04:46.536Z,20992
2017-03-12T12:05:56.371Z,20928
2017-03-12T12:07:05.851Z,21056
2017-03-12T12:08:15.339Z,21088
2017-03-12T12:09:24.828Z,21184
2017-03-12T12:10:34.325Z,21216
2017-03-12T12:11:44.579Z,21024
2017-03-12T12:12:54.822Z,20640
2017-03-12T12:14:04.662Z,20224
2017-03-12T12:15:14.909Z,19872
2017-03-12T12:16:23.993Z,19552
2017-03-12T12:17:34.220Z,19200
2017-03-12T12:18:44.474Z,18880
2017-03-12T12:19:54.721Z,18560
2017-03-12T12:21:04.279Z,18304
2017-03-12T12:22:14.155Z,17912
2017-03-12T12:23:24.406Z,17708
2017-03-12T12:24:33.898Z,17496
2017-03-12T12:25:43.785Z,17340
2017-03-12T12:26:53.653Z,17248
2017-03-12T12:28:03.152Z,17140
2017-03-12T12:29:13.002Z,17068
2017-03-12T12:30:23.518Z,16996
2017-03-12T12:31:34.202Z,16920
2017-03-12T12:32:44.090Z,16744
2017-03-12T12:33:54.371Z,16576
2017-03-12T12:35:03.509Z,16412
2017-03-12T12:36:13.413Z,16288
2017-03-12T12:37:23.317Z,16216
2017-03-12T12:38:32.397Z,16128
2017-03-12T12:39:41.966Z,16144
2017-03-12T12:40:52.201Z,16004
2017-03-12T12:42:03.068Z,15852
2017-03-12T12:43:12.934Z,15684
2017-03-12T12:44:23.171Z,15512
2017-03-12T12:45:33.458Z,15348
2017-03-12T12:46:43.476Z,15200
2017-03-12T12:47:54.069Z,15068
2017-03-12T12:49:03.930Z,14956
2017-03-12T12:50:13.806Z,14920
2017-03-12T12:51:24.430Z,14804
2017-03-12T12:52:34.365Z,14652
2017-03-12T12:53:44.208Z,14540
2017-03-12T12:54:54.833Z,14460
2017-03-12T12:56:05.079Z,14456
2017-03-12T12:57:15.347Z,14544
2017-03-12T12:58:25.597Z,14672
2017-03-12T12:59:35.484Z,14828
2017-03-12T13:00:44.954Z,14944
2017-03-12T13:01:55.194Z,15028
2017-03-12T13:03:05.813Z,15124
2017-03-12T13:04:15.684Z,15152
2017-03-12T13:05:25.561Z,15116
2017-03-12T13:06:36.221Z,15048
2017-03-12T13:07:46.268Z,15032
2017-03-12T13:08:55.824Z,15032
2017-03-12T13:10:06.465Z,14952
2017-03-12T13:11:16.788Z,14892
2017-03-12T13:12:27.163Z,14780
2017-03-12T13:13:37.448Z,14644
2017-03-12T13:14:47.315Z,14488
2017-03-12T13:15:57.181Z,14320
2017-03-12T13:17:07.451Z,14140
2017-03-12T13:18:17.327Z,13960
2017-03-12T13:19:27.176Z,13812
2017-03-12T13:20:36.649Z,13700
2017-03-12T13:21:46.145Z,13612
2017-03-12T13:22:56.402Z,13544
2017-03-12T13:24:06.642Z,13464
2017-03-12T13:25:16.549Z,13372
2017-03-12T13:26:26.787Z,13288
2017-03-12T13:27:37.030Z,13156
2017-03-12T13:28:47.264Z,12960
2017-03-12T13:29:56.727Z,12712
2017-03-12T13:31:05.832Z,12452
2017-03-12T13:32:15.690Z,12280
2017-03-12T13:33:25.542Z,12176
2017-03-12T13:34:35.424Z,12108
2017-03-12T13:35:45.661Z,12000
2017-03-12T13:36:56.289Z,11900
2017-03-12T13:38:05.756Z,11892
2017-03-12T13:39:15.995Z,11892
2017-03-12T13:40:26.571Z,11876
2017-03-12T13:41:36.843Z,11856
2017-03-12T13:42:46.710Z,11840
2017-03-12T13:43:57.341Z,11832
2017-03-12T13:45:07.620Z,11836
2017-03-12T13:46:18.238Z,11812
2017-03-12T13:47:27.732Z,11808
2017-03-12T13:48:37.212Z,11824
2017-03-12T13:49:46.702Z,11852
2017-03-12T13:50:56.994Z,11908
2017-03-12T13:52:06.753Z,11992
2017-03-12T13:53:16.626Z,12028
2017-03-12T13:54:26.087Z,12080
2017-03-12T13:55:35.950Z,12160
2017-03-12T13:56:45.452Z,12256
2017-03-12T13:57:55.321Z,12368
2017-03-12T13:59:05.935Z,12512
2017-03-12T14:00:16.187Z,12592
2017-03-12T14:01:25.269Z,12664
2017-03-12T14:02:34.765Z,12724
2017-03-12T14:03:44.647Z,12824
2017-03-12T14:04:54.515Z,12944
2017-03-12T14:06:04.362Z,13088
2017-03-12T14:07:14.649Z,13240
2017-03-12T14:08:24.139Z,13372
2017-03-12T14:09:35.015Z,13496
2017-03-12T14:10:44.488Z,13608
2017-03-12T14:11:54.727Z,13716
2017-03-12T14:13:04.199Z,13824
2017-03-12T14:14:14.445Z,13916
2017-03-12T14:15:24.685Z,13972
2017-03-12T14:16:33.780Z,14008
2017-03-12T14:17:44.027Z,14036
2017-03-12T14:18:53.893Z,14060
2017-03-12T14:20:03.357Z,14080
2017-03-12T14:21:13.462Z,14112
2017-03-12T14:22:23.714Z,14148
2017-03-12T14:23:34.013Z,14196
2017-03-12T14:24:43.105Z,14268
2017-03-12T14:25:52.568Z,14360
2017-03-12T14:27:02.413Z,14492
2017-03-12T14:28:12.669Z,14624
2017-03-12T14:29:22.548Z,14724
2017-03-12T14:30:32.039Z,14780
2017-03-12T14:31:42.309Z,14820
2017-03-12T14:32:51.775Z,14836
2017-03-12T14:34:02.025Z,14868
2017-03-12T14:35:11.501Z,15032
2017-03-12T14:36:21.756Z,15384
2017-03-12T14:37:31.246Z,15772
2017-03-12T14:38:41.493Z,15732
2017-03-12T14:39:51.761Z,15756
2017-03-12T14:41:02.005Z,15880
2017-03-12T14:42:11.501Z,15952
2017-03-12T14:43:21.741Z,16016
2017-03-12T14:44:31.983Z,15948
2017-03-12T14:45:41.854Z,15956
2017-03-12T14:46:52.518Z,15944
2017-03-12T14:48:02.390Z,15964
2017-03-12T14:49:12.248Z,15928
2017-03-12T14:50:22.350Z,15952
2017-03-12T14:51:32.205Z,16032
2017-03-12T14:52:42.066Z,16104
2017-03-12T14:53:52.313Z,16192
2017-03-12T14:55:02.189Z,16268
2017-03-12T14:56:12.057Z,16332
2017-03-12T14:57:21.931Z,16388
2017-03-12T14:58:31.819Z,16452
2017-03-12T14:59:41.669Z,16468
2017-03-12T15:00:51.526Z,16552
2017-03-12T15:02:01.770Z,16708
2017-03-12T15:03:11.632Z,16880
2017-03-12T15:04:21.878Z,17124
2017-03-12T15:05:32.135Z,17216
2017-03-12T15:06:42.011Z,17472
2017-03-12T15:07:51.742Z,17440
2017-03-12T15:09:01.658Z,17504
2017-03-12T15:10:11.546Z,17568
2017-03-12T15:11:21.414Z,17728
2017-03-12T15:12:31.290Z,17888
2017-03-12T15:13:41.201Z,18112
2017-03-12T15:14:51.065Z,18368
2017-03-12T15:16:00.957Z,18720
2017-03-12T15:17:10.819Z,19200
2017-03-12T15:18:21.087Z,28864
2017-03-12T15:19:31.598Z,40160
2017-03-12T15:20:41.861Z,40896
2017-03-12T15:21:52.118Z,41056
2017-03-12T15:23:02.009Z,39072
2017-03-12T15:24:11.872Z,37344
2017-03-12T15:25:21.382Z,36736
2017-03-12T15:26:31.255Z,36768
2017-03-12T15:27:40.354Z,38048
2017-03-12T15:28:50.613Z,37440
2017-03-12T15:30:00.099Z,36768
2017-03-12T15:31:10.222Z,34816
2017-03-12T15:32:20.104Z,32864
2017-03-12T15:33:29.973Z,30496
2017-03-12T15:34:40.224Z,26112
2017-03-12T15:35:50.471Z,22176
2017-03-12T15:37:00.326Z,21184
2017-03-12T15:38:10.203Z,23648
2017-03-12T15:39:20.085Z,30272
2017-03-12T15:40:29.942Z,30528
2017-03-12T15:41:39.809Z,25408
2017-03-12T15:42:49.694Z,25696
2017-03-12T15:43:59.939Z,23392
2017-03-12T15:45:09.795Z,22272
2017-03-12T15:46:19.282Z,21632
2017-03-12T15:47:28.755Z,23072
2017-03-12T15:48:39.405Z,27136
2017-03-12T15:49:49.260Z,27040
2017-03-12T15:50:59.593Z,23744